createdAt,value
2023-01-28T07:04:21.592Z,0.17
2023-01-28T08:19:48.746Z,-0.32
2023-01-28T08:40:06.961Z,0.20
2023-01-28T09:46:05.397Z,6.71
2023-01-28T09:51:25.483Z,7.28
2023-01-28T09:56:38.249Z,8.16
2023-01-28T10:01:55.313Z,8.59
2023-01-28T10:07:12.718Z,8.90
2023-01-28T10:12:17.839Z,9.05
2023-01-28T10:17:36.332Z,9.45
2023-01-28T10:22:50.808Z,10.06
2023-01-28T10:27:52.938Z,10.51
2023-01-28T10:33:06.012Z,10.96
2023-01-28T10:38:12.673Z,10.81
2023-01-28T10:43:25.709Z,11.11
2023-01-28T10:48:35.514Z,11.51
2023-01-28T10:53:46.100Z,11.93
2023-01-28T10:58:58.878Z,11.46
2023-01-28T11:04:01.270Z,12.01
2023-01-28T11:09:03.338Z,11.61
2023-01-28T11:14:05.285Z,11.38
2023-01-28T11:19:07.945Z,10.18
2023-01-28T11:24:21.729Z,9.65
2023-01-28T11:29:33.734Z,8.94
2023-01-28T11:34:55.965Z,8.91
2023-01-28T11:40:21.881Z,8.89
2023-01-28T11:45:35.916Z,8.60
2023-01-28T11:51:04.974Z,8.74
2023-01-28T11:56:09.578Z,8.73
2023-01-28T12:01:36.992Z,8.84
2023-01-28T12:06:43.614Z,8.91
2023-01-28T12:12:23.310Z,9.03
2023-01-28T12:18:02.085Z,9.05
2023-01-28T12:23:09.776Z,8.99
2023-01-28T12:50:00.968Z,8.74
2023-01-28T13:23:49.997Z,8.98
2023-01-28T13:43:42.847Z,8.94
2023-01-28T13:48:49.646Z,8.91
2023-01-28T13:54:21.774Z,8.88
2023-01-28T13:59:43.353Z,8.78
2023-01-28T14:05:02.345Z,8.97
2023-01-28T14:10:20.788Z,8.96
2023-01-28T14:15:47.720Z,8.98
2023-01-28T14:20:50.480Z,8.98
2023-01-28T14:25:58.484Z,8.94
2023-01-28T14:31:09.366Z,9.10
2023-01-28T14:36:12.275Z,9.10
2023-01-28T14:41:28.039Z,9.15
2023-01-28T14:46:41.733Z,9.25
2023-01-28T14:51:59.152Z,9.22
2023-01-28T14:57:14.836Z,9.21
2023-01-28T15:02:25.363Z,9.17
2023-01-28T15:07:28.178Z,9.22
2023-01-28T15:12:34.703Z,9.18
2023-01-28T15:17:37.070Z,9.06
2023-01-28T15:22:39.303Z,9.17
2023-01-28T15:27:42.493Z,9.18
2023-01-28T15:32:44.625Z,9.16
2023-01-28T15:42:55.390Z,9.14
2023-01-28T15:48:04.880Z,9.03
2023-01-28T15:53:11.399Z,9.03
2023-01-28T15:58:16.267Z,8.98
2023-01-28T16:03:27.874Z,8.99
2023-01-28T16:14:31.085Z,8.82
2023-01-28T16:19:39.052Z,8.65
2023-01-28T16:24:49.264Z,8.72
2023-01-28T16:29:51.461Z,8.69
2023-01-28T16:34:53.601Z,8.59
2023-01-28T16:39:55.986Z,8.42
2023-01-28T16:45:01.870Z,8.33
2023-01-28T16:50:05.826Z,8.18
2023-01-28T16:55:15.139Z,8.00
2023-01-28T17:00:23.866Z,7.96
2023-01-28T17:05:27.572Z,7.83
2023-01-28T17:10:29.961Z,7.76
2023-01-28T17:15:32.188Z,7.65
2023-01-28T17:20:37.720Z,7.52
2023-01-28T17:26:12.987Z,7.37
2023-01-28T17:38:07.428Z,7.00
2023-01-28T17:43:09.423Z,6.99
2023-01-28T17:48:11.530Z,6.90
2023-01-28T17:53:13.956Z,6.75
2023-01-28T17:58:16.292Z,6.82
2023-01-28T18:03:18.412Z,6.70
2023-01-28T18:08:21.052Z,6.61
2023-01-28T18:13:23.254Z,6.54
2023-01-28T18:18:25.352Z,6.45
2023-01-28T18:23:27.630Z,6.37
2023-01-28T18:28:30.209Z,6.35
2023-01-28T18:33:32.407Z,6.34
2023-01-28T18:38:35.634Z,6.25
2023-01-28T18:43:38.989Z,6.17
2023-01-28T18:48:41.027Z,6.14
2023-01-28T18:53:43.323Z,5.96
2023-01-28T18:58:54.897Z,6.05
2023-01-28T19:03:57.744Z,5.81
2023-01-28T19:09:02.088Z,5.91
2023-01-28T19:14:04.462Z,5.86
2023-01-28T19:19:07.068Z,5.77
2023-01-28T19:24:12.515Z,5.50
2023-01-28T19:29:16.298Z,5.48
2023-01-28T19:34:18.877Z,5.59
2023-01-28T19:39:21.290Z,5.54
2023-01-28T19:44:24.184Z,5.55
2023-01-28T19:49:26.467Z,5.49
2023-01-28T19:54:28.774Z,5.38
2023-01-28T19:59:32.494Z,5.28
2023-01-28T20:04:34.730Z,5.12
2023-01-28T20:09:36.873Z,5.09
2023-01-28T20:14:39.067Z,5.00
2023-01-28T20:19:41.217Z,4.80
2023-01-28T20:24:43.212Z,4.78
2023-01-28T20:29:47.607Z,4.67
2023-01-28T20:34:54.317Z,4.45
2023-01-28T20:39:56.360Z,4.41
2023-01-28T20:44:58.397Z,4.35
2023-01-28T20:50:00.515Z,4.18
2023-01-28T20:55:05.375Z,4.06
2023-01-28T21:00:08.889Z,4.22
2023-01-28T21:05:11.239Z,4.19
2023-01-28T21:10:13.502Z,3.97
2023-01-28T21:15:15.543Z,4.05
2023-01-28T21:20:18.081Z,4.10
2023-01-28T21:25:21.220Z,3.95
2023-01-28T21:30:23.688Z,3.99
2023-01-28T21:35:25.898Z,3.88
2023-01-28T21:40:28.121Z,3.82
2023-01-28T21:45:30.800Z,3.68
2023-01-28T21:50:52.912Z,3.79
2023-01-28T21:55:54.993Z,3.64
2023-01-28T22:00:57.507Z,3.69
2023-01-28T22:05:59.773Z,3.62
2023-01-28T22:11:06.317Z,3.55
2023-01-28T22:16:11.199Z,3.58
2023-01-28T22:21:14.985Z,3.58
2023-01-28T22:26:17.444Z,3.47
2023-01-28T22:31:20.031Z,3.40
2023-01-28T22:36:22.434Z,3.44
2023-01-28T22:41:34.087Z,3.35
2023-01-28T22:46:37.507Z,3.34
2023-01-28T22:51:39.638Z,3.35
2023-01-28T22:56:41.714Z,3.30
2023-01-28T23:01:43.992Z,3.22
2023-01-28T23:06:46.062Z,3.19
2023-01-28T23:11:48.409Z,3.12
2023-01-28T23:17:09.693Z,3.01
2023-01-28T23:22:46.421Z,2.89
2023-01-28T23:27:49.031Z,2.83
2023-01-28T23:32:55.416Z,2.81
2023-01-28T23:37:59.599Z,2.75
2023-01-28T23:43:04.812Z,2.64
2023-01-28T23:48:07.284Z,2.46
2023-01-28T23:53:13.312Z,2.43
2023-01-28T23:58:15.340Z,2.27
